SWA1709 KOMA-KLGA
Flight info
| Callsign | SWA1709 |
|---|---|
| Flight time | N/A |
| Altitude | 39000 |
| Route | DSM GERBS Q186 WEVEL ETG MIP4 |
| Aircraft | B38M/M-SDE1FGHILORVWXY/HB1 |
Departure
| Time | 2026-05-04 18:44 |
|---|---|
| Airport | Eppley Airfield (KOMA) |
Arrival
| Time | N/A |
|---|---|
| Airport | LaGuardia Airport (KLGA) |
| Time | Latitude | Longitude | Altitude | Speed | Heading |
|---|---|---|---|---|---|
| 2026-05-04 18:25 | 41.29792 | -95.89736 | 992 ft | 0 kts | 270° |
| 2026-05-04 18:35 | 41.29792 | -95.89720 | 992 ft | 2 kts | 265° |
| 2026-05-04 18:35 | 41.29794 | -95.89699 | 992 ft | 2 kts | 252° |
| 2026-05-04 18:35 | 41.29800 | -95.89680 | 992 ft | 2 kts | 231° |
| 2026-05-04 18:35 | 41.29811 | -95.89668 | 992 ft | 2 kts | 198° |
| 2026-05-04 18:36 | 41.29819 | -95.89665 | 992 ft | 0 kts | 180° |
| 2026-05-04 18:39 | 41.29810 | -95.89665 | 992 ft | 3 kts | 180° |
| 2026-05-04 18:39 | 41.29770 | -95.89665 | 992 ft | 8 kts | 180° |
| 2026-05-04 18:40 | 41.29696 | -95.89666 | 992 ft | 13 kts | 180° |
| 2026-05-04 18:40 | 41.29587 | -95.89667 | 992 ft | 18 kts | 180° |
| 2026-05-04 18:40 | 41.29458 | -95.89662 | 992 ft | 13 kts | 153° |
| 2026-05-04 18:40 | 41.29457 | -95.89625 | 992 ft | 4 kts | 31° |
| 2026-05-04 18:41 | 41.29491 | -95.89597 | 992 ft | 8 kts | 31° |
| 2026-05-04 18:41 | 41.29501 | -95.89540 | 992 ft | 9 kts | 121° |
| 2026-05-04 18:41 | 41.29459 | -95.89453 | 992 ft | 14 kts | 126° |
| 2026-05-04 18:41 | 41.29386 | -95.89340 | 992 ft | 18 kts | 133° |
| 2026-05-04 18:42 | 41.29290 | -95.89202 | 992 ft | 23 kts | 131° |
| 2026-05-04 18:42 | 41.29250 | -95.89001 | 992 ft | 24 kts | 87° |
| 2026-05-04 18:42 | 41.29257 | -95.88796 | 992 ft | 19 kts | 98° |
| 2026-05-04 18:42 | 41.29247 | -95.88666 | 992 ft | 13 kts | 62° |
| 2026-05-04 18:43 | 41.29300 | -95.88635 | 992 ft | 5 kts | 333° |
| 2026-05-04 18:43 | 41.29302 | -95.88637 | 992 ft | 0 kts | 332° |
| 2026-05-04 18:43 | 41.29414 | -95.88724 | 992 ft | 54 kts | 323° |
| 2026-05-04 18:44 | 41.29923 | -95.89214 | 992 ft | 124 kts | 324° |
| 2026-05-04 18:44 | 41.30460 | -95.89728 | 1072 ft | 157 kts | 324° |
| 2026-05-04 18:44 | 41.31674 | -95.90866 | 2217 ft | 159 kts | 330° |
| 2026-05-04 18:44 | 41.32782 | -95.91103 | 2924 ft | 175 kts | 6° |
| 2026-05-04 18:45 | 41.33938 | -95.90303 | 3351 ft | 204 kts | 40° |
| 2026-05-04 18:45 | 41.34714 | -95.88564 | 3787 ft | 228 kts | 68° |
| 2026-05-04 18:45 | 41.35004 | -95.86529 | 4735 ft | 225 kts | 81° |
| 2026-05-04 18:45 | 41.35140 | -95.84363 | 5114 ft | 247 kts | 87° |
| 2026-05-04 18:46 | 41.35180 | -95.81954 | 5424 ft | 271 kts | 89° |
| 2026-05-04 18:46 | 41.35191 | -95.79416 | 6086 ft | 276 kts | 88° |
| 2026-05-04 18:46 | 41.35199 | -95.76841 | 6766 ft | 282 kts | 88° |
| 2026-05-04 18:46 | 41.35210 | -95.74162 | 7327 ft | 298 kts | 88° |
| 2026-05-04 18:47 | 41.35232 | -95.71360 | 8005 ft | 309 kts | 88° |
| 2026-05-04 18:47 | 41.35261 | -95.68470 | 8808 ft | 314 kts | 87° |
| 2026-05-04 18:47 | 41.35297 | -95.65543 | 9612 ft | 320 kts | 87° |
| 2026-05-04 18:47 | 41.35341 | -95.62542 | 10455 ft | 323 kts | 87° |
| 2026-05-04 18:48 | 41.35389 | -95.59498 | 11088 ft | 335 kts | 87° |
| 2026-05-04 18:48 | 41.35443 | -95.56330 | 11455 ft | 355 kts | 87° |
| 2026-05-04 18:48 | 41.35507 | -95.52957 | 11766 ft | 375 kts | 86° |
| 2026-05-04 18:48 | 41.35580 | -95.49411 | 12146 ft | 392 kts | 86° |
| 2026-05-04 18:49 | 41.35658 | -95.45796 | 12779 ft | 398 kts | 86° |
| 2026-05-04 18:49 | 41.35618 | -95.42038 | 13493 ft | 405 kts | 91° |
| 2026-05-04 18:49 | 41.35472 | -95.38286 | 14160 ft | 410 kts | 90° |
| 2026-05-04 18:49 | 41.35450 | -95.34474 | 14858 ft | 414 kts | 88° |
| 2026-05-04 18:50 | 41.35501 | -95.30644 | 15558 ft | 417 kts | 87° |
| 2026-05-04 18:50 | 41.35616 | -95.26757 | 16230 ft | 421 kts | 85° |
| 2026-05-04 18:50 | 41.35777 | -95.22808 | 16881 ft | 425 kts | 85° |
| 2026-05-04 18:50 | 41.35958 | -95.18872 | 17514 ft | 429 kts | 84° |
| 2026-05-04 18:51 | 41.36154 | -95.14891 | 18139 ft | 432 kts | 84° |
| 2026-05-04 18:51 | 41.36364 | -95.10880 | 18673 ft | 439 kts | 84° |
| 2026-05-04 18:51 | 41.36579 | -95.06819 | 19205 ft | 443 kts | 85° |
| 2026-05-04 18:51 | 41.36798 | -95.02706 | 19802 ft | 447 kts | 85° |
| 2026-05-04 18:52 | 41.37022 | -94.98566 | 20367 ft | 450 kts | 85° |
| 2026-05-04 18:52 | 41.37249 | -94.94398 | 20921 ft | 453 kts | 85° |
| 2026-05-04 18:52 | 41.37473 | -94.90260 | 21478 ft | 456 kts | 84° |
| 2026-05-04 18:52 | 41.37704 | -94.85998 | 22064 ft | 457 kts | 84° |
| 2026-05-04 18:53 | 41.37935 | -94.81777 | 22587 ft | 460 kts | 83° |
| 2026-05-04 18:53 | 41.38166 | -94.77525 | 23118 ft | 462 kts | 83° |
| 2026-05-04 18:53 | 41.38398 | -94.73260 | 23601 ft | 465 kts | 83° |
| 2026-05-04 18:53 | 41.38639 | -94.68951 | 23904 ft | 472 kts | 84° |
| 2026-05-04 18:54 | 41.38868 | -94.64687 | 24276 ft | 476 kts | 84° |
| 2026-05-04 18:54 | 41.39109 | -94.60158 | 24737 ft | 479 kts | 84° |
| 2026-05-04 18:54 | 41.39344 | -94.55726 | 25139 ft | 483 kts | 84° |
| 2026-05-04 18:54 | 41.39579 | -94.51254 | 25531 ft | 486 kts | 84° |
| 2026-05-04 18:55 | 41.39814 | -94.46756 | 25920 ft | 489 kts | 84° |
| 2026-05-04 18:55 | 41.40285 | -94.37657 | 26670 ft | 495 kts | 84° |
| 2026-05-04 18:55 | 41.40519 | -94.33077 | 27015 ft | 498 kts | 84° |
| 2026-05-04 18:56 | 41.40754 | -94.28464 | 27359 ft | 501 kts | 84° |
| 2026-05-04 18:56 | 41.40987 | -94.23839 | 27698 ft | 504 kts | 84° |
| 2026-05-04 18:56 | 41.41224 | -94.19105 | 28046 ft | 506 kts | 84° |
| 2026-05-04 18:56 | 41.41456 | -94.14415 | 28370 ft | 508 kts | 84° |
| 2026-05-04 18:57 | 41.41613 | -94.11241 | 28572 ft | 510 kts | 84° |
| 2026-05-04 18:57 | 41.41935 | -94.04926 | 28969 ft | 514 kts | 84° |
| 2026-05-04 18:57 | 41.42175 | -94.00239 | 29263 ft | 516 kts | 84° |
| 2026-05-04 18:57 | 41.42409 | -93.95453 | 29593 ft | 517 kts | 84° |
| 2026-05-04 18:58 | 41.42637 | -93.90630 | 29995 ft | 516 kts | 84° |
| 2026-05-04 18:58 | 41.42856 | -93.85881 | 30367 ft | 516 kts | 84° |
| 2026-05-04 18:58 | 41.43072 | -93.81123 | 30789 ft | 514 kts | 84° |
| 2026-05-04 18:58 | 41.43286 | -93.76374 | 31218 ft | 512 kts | 84° |
| 2026-05-04 18:59 | 41.43498 | -93.71658 | 31652 ft | 510 kts | 84° |
| 2026-05-04 18:59 | 41.43701 | -93.67128 | 32044 ft | 508 kts | 84° |
| 2026-05-04 18:59 | 41.43851 | -93.64039 | 32299 ft | 507 kts | 82° |
| 2026-05-04 18:59 | 41.44205 | -93.59336 | 32682 ft | 505 kts | 82° |
| 2026-05-04 19:00 | 41.44674 | -93.53167 | 33198 ft | 502 kts | 82° |
| 2026-05-04 19:00 | 41.44903 | -93.50122 | 33461 ft | 501 kts | 82° |
| 2026-05-04 19:00 | 41.45251 | -93.45454 | 33877 ft | 498 kts | 82° |
| 2026-05-04 19:00 | 41.45590 | -93.40862 | 34229 ft | 497 kts | 82° |
| 2026-05-04 19:01 | 41.45925 | -93.36294 | 34559 ft | 496 kts | 82° |
| 2026-05-04 19:01 | 41.46257 | -93.31720 | 34899 ft | 495 kts | 82° |
| 2026-05-04 19:01 | 41.46694 | -93.25632 | 35396 ft | 491 kts | 82° |
| 2026-05-04 19:01 | 41.46908 | -93.22645 | 35661 ft | 489 kts | 82° |
| 2026-05-04 19:02 | 41.47232 | -93.18136 | 35979 ft | 488 kts | 82° |
| 2026-05-04 19:02 | 41.47578 | -93.13647 | 36275 ft | 487 kts | 82° |
| 2026-05-04 19:02 | 41.47915 | -93.09191 | 36579 ft | 486 kts | 82° |
| 2026-05-04 19:02 | 41.48253 | -93.04648 | 36878 ft | 484 kts | 82° |
| 2026-05-04 19:03 | 41.48581 | -93.00191 | 37163 ft | 483 kts | 82° |
| 2026-05-04 19:03 | 41.48904 | -92.95750 | 37450 ft | 482 kts | 82° |
| 2026-05-04 19:03 | 41.49224 | -92.91293 | 37722 ft | 481 kts | 82° |
| 2026-05-04 19:03 | 41.49540 | -92.86866 | 37988 ft | 480 kts | 82° |
| 2026-05-04 19:04 | 41.49851 | -92.82472 | 38242 ft | 479 kts | 82° |
| 2026-05-04 19:04 | 41.50161 | -92.78054 | 38489 ft | 478 kts | 82° |
| 2026-05-04 19:04 | 41.50471 | -92.73634 | 38619 ft | 479 kts | 83° |
| 2026-05-04 19:04 | 41.50778 | -92.69206 | 38627 ft | 481 kts | 83° |
| 2026-05-04 19:05 | 41.51386 | -92.60332 | 38633 ft | 480 kts | 83° |
| 2026-05-04 19:05 | 41.51984 | -92.51482 | 38637 ft | 480 kts | 83° |
| 2026-05-04 19:06 | 41.52580 | -92.42584 | 38638 ft | 480 kts | 84° |
| 2026-05-04 19:06 | 41.53166 | -92.33707 | 38638 ft | 480 kts | 84° |
| 2026-05-04 19:07 | 41.53748 | -92.24787 | 38638 ft | 480 kts | 84° |
| 2026-05-04 19:07 | 41.54320 | -92.15925 | 38639 ft | 479 kts | 84° |
| 2026-05-04 19:08 | 41.54887 | -92.07032 | 38632 ft | 480 kts | 84° |
| 2026-05-04 19:08 | 41.55446 | -91.98147 | 38620 ft | 480 kts | 84° |
| 2026-05-04 19:09 | 41.55999 | -91.89238 | 38614 ft | 479 kts | 84° |
| 2026-05-04 19:09 | 41.56541 | -91.80386 | 38608 ft | 479 kts | 84° |
| 2026-05-04 19:10 | 41.57082 | -91.71481 | 38604 ft | 479 kts | 84° |
| 2026-05-04 19:10 | 41.57623 | -91.62430 | 38606 ft | 479 kts | 84° |
| 2026-05-04 19:11 | 41.58151 | -91.53484 | 38609 ft | 479 kts | 84° |
| 2026-05-04 19:11 | 41.58676 | -91.44460 | 38608 ft | 479 kts | 84° |
| 2026-05-04 19:12 | 41.59432 | -91.31258 | 38629 ft | 481 kts | 84° |
| 2026-05-04 19:13 | 41.59937 | -91.22284 | 38635 ft | 480 kts | 84° |
| 2026-05-04 19:13 | 41.60434 | -91.13331 | 38623 ft | 480 kts | 85° |
| 2026-05-04 19:14 | 41.60920 | -91.04460 | 38611 ft | 480 kts | 85° |
| 2026-05-04 19:14 | 41.61402 | -90.95527 | 38606 ft | 481 kts | 85° |
| 2026-05-04 19:15 | 41.61873 | -90.86641 | 38603 ft | 480 kts | 85° |
| 2026-05-04 19:15 | 41.62343 | -90.77678 | 38602 ft | 480 kts | 85° |
| 2026-05-04 19:16 | 41.62806 | -90.68680 | 38603 ft | 479 kts | 84° |
| 2026-05-04 19:16 | 41.63183 | -90.61264 | 38601 ft | 477 kts | 84° |
| 2026-05-04 19:17 | 41.63630 | -90.52374 | 38602 ft | 477 kts | 84° |
| 2026-05-04 19:17 | 41.64069 | -90.43485 | 38596 ft | 477 kts | 84° |
| 2026-05-04 19:18 | 41.64501 | -90.34593 | 38590 ft | 477 kts | 84° |
| 2026-05-04 19:18 | 41.64926 | -90.25729 | 38589 ft | 480 kts | 85° |
| 2026-05-04 19:19 | 41.65348 | -90.16752 | 38594 ft | 479 kts | 85° |
| 2026-05-04 19:19 | 41.65764 | -90.07790 | 38594 ft | 480 kts | 85° |
| 2026-05-04 19:20 | 41.66171 | -89.98848 | 38593 ft | 481 kts | 86° |
| 2026-05-04 19:20 | 41.66566 | -89.89963 | 38605 ft | 480 kts | 85° |
| 2026-05-04 19:21 | 41.66959 | -89.81014 | 38600 ft | 479 kts | 85° |
| 2026-05-04 19:21 | 41.67346 | -89.72045 | 38606 ft | 478 kts | 85° |
| 2026-05-04 19:22 | 41.67724 | -89.63104 | 38610 ft | 478 kts | 85° |
| 2026-05-04 19:22 | 41.68091 | -89.54287 | 38609 ft | 475 kts | 84° |
| 2026-05-04 19:23 | 41.68458 | -89.45373 | 38611 ft | 479 kts | 85° |
| 2026-05-04 19:23 | 41.68817 | -89.36390 | 38610 ft | 481 kts | 86° |
| 2026-05-04 19:24 | 41.69169 | -89.27425 | 38610 ft | 481 kts | 86° |
| 2026-05-04 19:24 | 41.69514 | -89.18436 | 38610 ft | 482 kts | 86° |
| 2026-05-04 19:25 | 41.69818 | -89.10349 | 38609 ft | 481 kts | 86° |
| 2026-05-04 19:25 | 41.70162 | -89.01045 | 38610 ft | 482 kts | 86° |
| 2026-05-04 19:26 | 41.70432 | -88.93585 | 38610 ft | 483 kts | 86° |
| 2026-05-04 19:26 | 41.70757 | -88.84430 | 38610 ft | 482 kts | 86° |
| 2026-05-04 19:27 | 41.71064 | -88.75499 | 38610 ft | 481 kts | 85° |
| 2026-05-04 19:27 | 41.71367 | -88.66546 | 38609 ft | 478 kts | 85° |
| 2026-05-04 19:28 | 41.71663 | -88.57678 | 38610 ft | 476 kts | 84° |
| 2026-05-04 19:28 | 41.71953 | -88.48770 | 38610 ft | 477 kts | 84° |
| 2026-05-04 19:29 | 41.72235 | -88.39855 | 38610 ft | 475 kts | 84° |
| 2026-05-04 19:29 | 41.72513 | -88.30958 | 38610 ft | 477 kts | 85° |
| 2026-05-04 19:30 | 41.72785 | -88.21921 | 38611 ft | 483 kts | 86° |
| 2026-05-04 19:30 | 41.73047 | -88.12943 | 38610 ft | 483 kts | 86° |
| 2026-05-04 19:31 | 41.73303 | -88.03933 | 38615 ft | 482 kts | 86° |
| 2026-05-04 19:31 | 41.73551 | -87.94962 | 38607 ft | 481 kts | 86° |
| 2026-05-04 19:32 | 41.73793 | -87.86024 | 38607 ft | 481 kts | 86° |
| 2026-05-04 19:32 | 41.74028 | -87.77011 | 38612 ft | 483 kts | 86° |
| 2026-05-04 19:33 | 41.74256 | -87.68006 | 38606 ft | 481 kts | 86° |
| 2026-05-04 19:33 | 41.74476 | -87.59031 | 38612 ft | 479 kts | 86° |
| 2026-05-04 19:34 | 41.74689 | -87.50068 | 38611 ft | 477 kts | 85° |
| 2026-05-04 19:34 | 41.74893 | -87.41208 | 38609 ft | 476 kts | 85° |
| 2026-05-04 19:35 | 41.75092 | -87.32346 | 38615 ft | 478 kts | 86° |
| 2026-05-04 19:35 | 41.75283 | -87.23454 | 38616 ft | 478 kts | 86° |
| 2026-05-04 19:36 | 41.75471 | -87.14509 | 38626 ft | 481 kts | 87° |